createdAt,value
2018-11-05T00:00:51.379Z,47.57
2018-11-05T00:01:51.392Z,47.57
2018-11-05T00:02:51.356Z,47.87
2018-11-05T00:03:51.346Z,47.77
2018-11-05T00:04:51.338Z,47.57
2018-11-05T00:05:51.348Z,47.30
2018-11-05T00:06:51.310Z,47.67
2018-11-05T00:07:51.299Z,47.87
2018-11-05T00:08:51.297Z,47.60
2018-11-05T00:09:51.277Z,47.87
2018-11-05T00:10:51.291Z,47.57
2018-11-05T00:11:51.258Z,47.89
2018-11-05T00:12:51.277Z,47.87
2018-11-05T00:13:51.234Z,47.87
2018-11-05T00:14:51.221Z,47.60
2018-11-05T00:15:51.209Z,47.60
2018-11-05T00:16:51.199Z,47.57
2018-11-05T00:17:51.213Z,47.89
2018-11-05T00:18:51.180Z,47.57
2018-11-05T00:19:51.199Z,47.57
2018-11-05T00:20:51.154Z,47.89
2018-11-05T00:21:51.142Z,47.60
2018-11-05T00:22:51.132Z,47.57
2018-11-05T00:23:51.122Z,47.60
2018-11-05T00:24:51.137Z,47.57
2018-11-05T00:25:51.098Z,47.57
2018-11-05T00:26:51.088Z,47.87
2018-11-05T00:27:51.076Z,47.57
2018-11-05T00:28:51.093Z,47.87
2018-11-05T00:29:51.053Z,47.89
2018-11-05T00:30:51.046Z,47.87
2018-11-05T00:31:51.032Z,47.89
2018-11-05T00:32:51.020Z,47.57
2018-11-05T00:33:51.040Z,47.79
2018-11-05T00:34:50.999Z,47.39
2018-11-05T00:35:50.989Z,47.37
2018-11-05T00:36:51.000Z,47.89
2018-11-05T00:37:50.967Z,47.57
2018-11-05T00:38:50.977Z,47.60
2018-11-05T00:39:50.942Z,47.79
2018-11-05T00:40:50.962Z,47.67
2018-11-05T00:41:50.919Z,47.89
2018-11-05T00:42:50.909Z,47.87
2018-11-05T00:43:50.899Z,48.39
2018-11-05T00:44:50.885Z,47.87
2018-11-05T00:45:50.973Z,47.60
2018-11-05T00:46:50.866Z,47.87
2018-11-05T00:47:50.853Z,47.57
2018-11-05T00:48:50.866Z,47.60
2018-11-05T00:49:50.833Z,47.87
2018-11-05T00:50:50.821Z,47.89
2018-11-05T00:51:50.807Z,47.89
2018-11-05T00:52:50.800Z,47.79
2018-11-05T00:53:50.819Z,47.49
2018-11-05T00:54:50.774Z,47.57
2018-11-05T00:55:50.762Z,47.57
2018-11-05T00:56:50.752Z,47.57
2018-11-05T00:57:50.740Z,47.60
2018-11-05T00:58:50.760Z,47.60
2018-11-05T00:59:50.717Z,47.57
2018-11-05T01:00:50.706Z,47.60
2018-11-05T01:01:50.698Z,47.57
2018-11-05T01:02:50.686Z,47.60
2018-11-05T01:03:50.709Z,47.99
2018-11-05T01:04:50.661Z,47.87
2018-11-05T01:05:50.650Z,47.57
2018-11-05T01:06:50.640Z,47.79
2018-11-05T01:07:50.628Z,47.60
2018-11-05T01:08:50.642Z,47.99
2018-11-05T01:09:50.633Z,47.57
2018-11-05T01:10:50.614Z,47.57
2018-11-05T01:11:50.586Z,47.89
2018-11-05T01:12:50.574Z,47.67
2018-11-05T01:13:50.560Z,47.60
2018-11-05T01:14:50.593Z,47.87
2018-11-05T01:15:50.539Z,47.89
2018-11-05T01:16:50.528Z,47.60
2018-11-05T01:17:50.516Z,47.57
2018-11-05T01:18:50.506Z,47.60
2018-11-05T01:19:50.519Z,47.57
2018-11-05T01:20:50.508Z,47.87
2018-11-05T01:21:50.475Z,47.67
2018-11-05T01:22:50.495Z,47.99
2018-11-05T01:23:50.452Z,47.57
2018-11-05T01:24:50.441Z,47.67
2018-11-05T01:25:50.426Z,47.57
2018-11-05T01:26:50.415Z,48.17
2018-11-05T01:27:50.472Z,47.60
2018-11-05T01:28:50.394Z,47.79
2018-11-05T01:29:50.385Z,47.69
2018-11-05T01:30:50.374Z,47.57
2018-11-05T01:31:50.363Z,47.89
2018-11-05T01:32:50.367Z,47.87
2018-11-05T01:33:50.342Z,47.60
2018-11-05T01:34:50.327Z,47.60
2018-11-05T01:35:50.361Z,47.57
2018-11-05T01:36:50.307Z,47.69
2018-11-05T01:37:50.319Z,47.77
2018-11-05T01:38:50.308Z,47.89
2018-11-05T01:39:50.272Z,47.47
2018-11-05T01:40:50.283Z,47.60
2018-11-05T01:41:50.284Z,47.57
2018-11-05T01:42:50.238Z,47.89
2018-11-05T01:43:50.227Z,47.57
2018-11-05T01:44:50.214Z,47.57
2018-11-05T01:45:50.203Z,47.57
2018-11-05T01:46:50.218Z,47.77
2018-11-05T01:47:50.205Z,47.97
2018-11-05T01:48:50.169Z,47.60
2018-11-05T01:49:50.159Z,47.69
2018-11-05T01:50:50.147Z,47.97
2018-11-05T01:51:50.137Z,47.60
2018-11-05T01:52:50.151Z,47.97
2018-11-05T01:53:50.113Z,47.57
2018-11-05T01:54:50.104Z,47.87
2018-11-05T01:55:50.093Z,47.57
2018-11-05T01:56:50.107Z,47.69
2018-11-05T01:57:50.103Z,47.37
2018-11-05T01:58:50.059Z,47.39
2018-11-05T01:59:50.048Z,47.77
2018-11-05T02:00:50.039Z,47.79
2018-11-05T02:01:50.027Z,47.60
2018-11-05T02:02:50.039Z,47.79
2018-11-05T02:03:50.005Z,47.67
2018-11-05T02:04:49.997Z,47.67
2018-11-05T02:05:49.980Z,47.60
2018-11-05T02:06:49.969Z,48.29
2018-11-05T02:07:49.983Z,47.79
2018-11-05T02:08:49.946Z,47.79
2018-11-05T02:09:49.936Z,48.10
2018-11-05T02:10:49.926Z,47.47
2018-11-05T02:11:49.917Z,47.60
2018-11-05T02:12:49.929Z,47.30
2018-11-05T02:13:49.896Z,47.57
2018-11-05T02:14:49.880Z,47.60
2018-11-05T02:15:49.925Z,47.57
2018-11-05T02:16:49.863Z,47.60
2018-11-05T02:17:49.872Z,47.77
2018-11-05T02:18:49.834Z,47.79
2018-11-05T02:19:49.857Z,47.39
2018-11-05T02:20:49.814Z,47.60
2018-11-05T02:21:49.804Z,47.87
2018-11-05T02:22:49.792Z,48.07
2018-11-05T02:23:49.780Z,47.57
2018-11-05T02:24:49.803Z,47.30
2018-11-05T02:25:49.757Z,47.60
2018-11-05T02:26:49.745Z,47.77
2018-11-05T02:27:49.740Z,47.77
2018-11-05T02:28:49.725Z,47.79
2018-11-05T02:29:49.741Z,47.60
2018-11-05T02:30:49.705Z,47.69
2018-11-05T02:31:49.689Z,47.49
2018-11-05T02:32:49.752Z,48.10
2018-11-05T02:33:49.669Z,47.60
2018-11-05T02:34:49.660Z,47.60
2018-11-05T02:35:49.673Z,47.79
2018-11-05T02:36:49.634Z,47.60
2018-11-05T02:37:49.626Z,47.60
2018-11-05T02:38:49.611Z,47.69
2018-11-05T02:39:49.602Z,47.60
2018-11-05T02:40:49.616Z,47.60
2018-11-05T02:41:49.578Z,47.67
2018-11-05T02:42:49.571Z,47.67
2018-11-05T02:43:49.556Z,47.60
2018-11-05T02:44:49.545Z,47.57
2018-11-05T02:45:49.564Z,48.10
2018-11-05T02:46:49.522Z,47.99
2018-11-05T02:47:49.512Z,47.57
2018-11-05T02:48:49.545Z,47.99
2018-11-05T02:49:49.488Z,47.39
2018-11-05T02:50:49.481Z,47.60
2018-11-05T02:51:49.466Z,47.89
2018-11-05T02:52:49.456Z,47.79
2018-11-05T02:53:49.470Z,47.49
2018-11-05T02:54:49.438Z,47.99
2018-11-05T02:55:49.450Z,47.79
2018-11-05T02:56:49.410Z,47.60
2018-11-05T02:57:49.401Z,47.99
2018-11-05T02:58:49.388Z,47.39
2018-11-05T02:59:49.404Z,47.79
2018-11-05T03:00:49.369Z,48.10
2018-11-05T03:01:49.355Z,47.60
2018-11-05T03:02:49.344Z,47.60
2018-11-05T03:03:49.362Z,47.89
2018-11-05T03:04:49.325Z,47.99
2018-11-05T03:05:49.310Z,47.89
2018-11-05T03:06:49.332Z,47.60
2018-11-05T03:07:49.291Z,47.49
2018-11-05T03:08:49.276Z,47.57
2018-11-05T03:09:49.268Z,48.10
2018-11-05T03:10:49.254Z,47.99
2018-11-05T03:11:49.281Z,47.60
2018-11-05T03:12:49.233Z,47.77
2018-11-05T03:13:49.222Z,47.69
2018-11-05T03:14:49.211Z,47.87
2018-11-05T03:15:49.199Z,47.79
2018-11-05T03:16:49.214Z,47.49
2018-11-05T03:17:49.176Z,47.49
2018-11-05T03:18:49.166Z,47.77
2018-11-05T03:19:49.180Z,47.77
2018-11-05T03:20:49.144Z,48.07
2018-11-05T03:21:49.132Z,48.10
2018-11-05T03:22:49.145Z,47.60
2018-11-05T03:23:49.112Z,47.39
2018-11-05T03:24:49.101Z,47.77
2018-11-05T03:25:49.087Z,47.79
2018-11-05T03:26:49.077Z,47.49
2018-11-05T03:27:49.098Z,47.79
2018-11-05T03:28:49.058Z,48.10
2018-11-05T03:29:49.043Z,47.57
2018-11-05T03:30:49.033Z,47.87
2018-11-05T03:31:49.021Z,47.99
2018-11-05T03:32:49.035Z,47.60
2018-11-05T03:33:48.998Z,47.57
2018-11-05T03:34:48.988Z,47.89
2018-11-05T03:35:49.069Z,47.99
2018-11-05T03:36:48.966Z,47.89
2018-11-05T03:37:48.953Z,47.79
2018-11-05T03:38:48.947Z,47.60
2018-11-05T03:39:48.938Z,47.60
2018-11-05T03:40:48.947Z,47.39
2018-11-05T03:41:48.908Z,47.79
2018-11-05T03:42:48.899Z,47.57
2018-11-05T03:43:48.887Z,47.87
2018-11-05T03:44:48.904Z,48.07
2018-11-05T03:45:48.864Z,47.99
2018-11-05T03:46:48.853Z,48.07
2018-11-05T03:47:48.867Z,47.60
2018-11-05T03:48:48.831Z,47.60
2018-11-05T03:49:48.846Z,47.97
2018-11-05T03:50:48.808Z,47.97
2018-11-05T03:51:48.823Z,47.89
2018-11-05T03:52:48.786Z,47.99
2018-11-05T03:53:48.775Z,47.99
2018-11-05T03:54:48.775Z,47.89
2018-11-05T03:55:48.792Z,47.49
2018-11-05T03:56:48.844Z,47.89
2018-11-05T03:57:48.731Z,47.89
2018-11-05T03:58:48.720Z,47.77
2018-11-05T03:59:48.708Z,48.07
2018-11-05T04:00:48.730Z,47.47
2018-11-05T04:01:48.686Z,47.87
2018-11-05T04:02:48.689Z,47.77
2018-11-05T04:03:48.664Z,48.10
2018-11-05T04:04:48.655Z,47.99
2018-11-05T04:05:48.666Z,47.89
2018-11-05T04:06:48.649Z,47.99
2018-11-05T04:07:48.618Z,47.99
2018-11-05T04:08:48.607Z,47.87
2018-11-05T04:09:48.596Z,47.99
2018-11-05T04:10:48.621Z,47.57
2018-11-05T04:11:48.573Z,47.79
2018-11-05T04:12:48.566Z,47.77
2018-11-05T04:13:48.552Z,47.89
2018-11-05T04:14:48.541Z,47.37
2018-11-05T04:15:48.567Z,47.79
2018-11-05T04:16:48.517Z,47.87
2018-11-05T04:17:48.505Z,47.77
2018-11-05T04:18:48.495Z,47.79
2018-11-05T04:19:48.483Z,47.99
2018-11-05T04:20:48.502Z,47.87
2018-11-05T04:21:48.460Z,47.99
2018-11-05T04:22:48.450Z,47.89
2018-11-05T04:23:48.440Z,47.97
2018-11-05T04:24:48.428Z,47.99
2018-11-05T04:25:48.450Z,47.77
2018-11-05T04:26:48.409Z,47.99
2018-11-05T04:27:48.485Z,47.99
2018-11-05T04:28:48.391Z,47.87
2018-11-05T04:29:48.372Z,48.10
2018-11-05T04:30:48.395Z,47.60
2018-11-05T04:31:48.350Z,47.89
2018-11-05T04:32:48.344Z,47.97
2018-11-05T04:33:48.330Z,47.89
2018-11-05T04:34:48.316Z,47.89
2018-11-05T04:35:48.334Z,47.99
2018-11-05T04:36:48.294Z,47.97
2018-11-05T04:37:48.284Z,47.89
2018-11-05T04:38:48.271Z,47.89
2018-11-05T04:39:48.260Z,47.97
2018-11-05T04:40:48.275Z,47.99
2018-11-05T04:41:48.265Z,47.87
2018-11-05T04:42:48.239Z,47.97
2018-11-05T04:43:48.219Z,47.57
2018-11-05T04:44:48.207Z,47.87
2018-11-05T04:45:48.194Z,47.97
2018-11-05T04:46:48.208Z,47.79
2018-11-05T04:47:48.176Z,47.77
2018-11-05T04:48:48.160Z,47.47
2018-11-05T04:49:48.149Z,47.60
2018-11-05T04:50:48.168Z,47.60
2018-11-05T04:51:48.127Z,47.99
2018-11-05T04:52:48.116Z,47.87
2018-11-05T04:53:48.133Z,47.87
2018-11-05T04:54:48.093Z,47.77
2018-11-05T04:55:48.111Z,47.47
2018-11-05T04:56:48.073Z,47.87
2018-11-05T04:57:48.060Z,47.97
2018-11-05T04:58:48.051Z,47.97
2018-11-05T04:59:48.037Z,47.57
2018-11-05T05:00:48.051Z,47.97
2018-11-05T05:01:48.021Z,47.97
2018-11-05T05:02:48.006Z,47.99
2018-11-05T05:03:47.995Z,47.97
2018-11-05T05:04:48.009Z,47.87
2018-11-05T05:05:47.971Z,47.97
2018-11-05T05:06:47.959Z,47.97
2018-11-05T05:07:47.951Z,47.97
2018-11-05T05:08:47.937Z,47.89
2018-11-05T05:09:47.949Z,47.89
2018-11-05T05:10:47.915Z,47.49
2018-11-05T05:11:47.904Z,47.97
2018-11-05T05:12:47.893Z,47.99
2018-11-05T05:13:47.910Z,47.87
2018-11-05T05:14:47.874Z,48.07
2018-11-05T05:15:47.859Z,47.67
2018-11-05T05:16:47.849Z,47.87
2018-11-05T05:17:47.837Z,47.87
2018-11-05T05:18:47.851Z,47.87
2018-11-05T05:19:47.814Z,47.47
2018-11-05T05:20:47.802Z,47.57
2018-11-05T05:21:47.790Z,47.57
2018-11-05T05:22:48.026Z,47.77
2018-11-05T05:23:47.797Z,47.97
2018-11-05T05:24:47.759Z,47.97
2018-11-05T05:25:47.780Z,47.60
2018-11-05T05:26:47.736Z,47.87
2018-11-05T05:27:47.727Z,47.69
2018-11-05T05:28:47.718Z,47.89
2018-11-05T05:29:47.702Z,47.97
2018-11-05T05:30:47.738Z,47.97
2018-11-05T05:31:47.680Z,47.89
2018-11-05T05:32:47.694Z,47.87
2018-11-05T05:33:47.658Z,47.87
2018-11-05T05:34:47.646Z,47.99
2018-11-05T05:35:47.660Z,47.87
2018-11-05T05:36:47.623Z,47.97
2018-11-05T05:37:47.612Z,47.97
2018-11-05T05:38:47.601Z,47.99
2018-11-05T05:39:47.614Z,47.99
2018-11-05T05:40:47.604Z,47.79
2018-11-05T05:41:47.574Z,47.87
2018-11-05T05:42:47.580Z,47.99
2018-11-05T05:43:47.549Z,47.79
2018-11-05T05:44:47.535Z,47.67
2018-11-05T05:45:47.523Z,47.97
2018-11-05T05:46:47.512Z,47.87
2018-11-05T05:47:47.524Z,47.99
2018-11-05T05:48:47.493Z,47.87
2018-11-05T05:49:47.485Z,47.87
2018-11-05T05:50:47.499Z,47.89
2018-11-05T05:51:47.456Z,47.97
2018-11-05T05:52:47.448Z,47.99
2018-11-05T05:53:47.436Z,47.87
2018-11-05T05:54:47.423Z,47.99
2018-11-05T05:55:47.439Z,47.99
2018-11-05T05:56:47.401Z,47.97
2018-11-05T05:57:47.393Z,47.99
2018-11-05T05:58:47.377Z,47.87
2018-11-05T05:59:47.398Z,47.69
2018-11-05T06:00:47.384Z,47.97
2018-11-05T06:01:47.346Z,47.87
2018-11-05T06:02:47.333Z,48.07
2018-11-05T06:03:47.325Z,47.77
2018-11-05T06:04:47.311Z,47.77
2018-11-05T06:05:47.399Z,47.97
2018-11-05T06:06:47.289Z,47.77
2018-11-05T06:07:47.276Z,47.99
2018-11-05T06:08:47.266Z,47.97
2018-11-05T06:09:47.255Z,48.10
2018-11-05T06:10:47.269Z,47.97
2018-11-05T06:11:47.256Z,47.97
2018-11-05T06:12:47.221Z,47.97
2018-11-05T06:13:47.214Z,47.89
2018-11-05T06:14:47.198Z,47.97
2018-11-05T06:15:47.243Z,47.87
2018-11-05T06:16:47.205Z,47.99
2018-11-05T06:17:47.166Z,47.97
2018-11-05T06:18:47.153Z,47.97
2018-11-05T06:19:47.146Z,47.77
2018-11-05T06:20:47.132Z,47.87
2018-11-05T06:21:47.226Z,47.97
2018-11-05T06:22:47.117Z,47.97
2018-11-05T06:23:47.099Z,47.89
2018-11-05T06:24:47.112Z,47.99
2018-11-05T06:25:47.076Z,47.97
2018-11-05T06:26:47.097Z,47.87
2018-11-05T06:27:47.054Z,48.07
2018-11-05T06:28:47.043Z,48.07
2018-11-05T06:29:47.031Z,47.97
2018-11-05T06:30:47.021Z,47.97
2018-11-05T06:31:47.043Z,47.77
2018-11-05T06:32:46.999Z,47.99
2018-11-05T06:33:46.987Z,47.77
2018-11-05T06:34:46.976Z,47.77
2018-11-05T06:35:46.967Z,47.97
2018-11-05T06:36:46.982Z,47.97
2018-11-05T06:37:46.942Z,47.67
2018-11-05T06:38:46.934Z,47.89
2018-11-05T06:39:46.919Z,47.97
2018-11-05T06:40:46.933Z,47.67
2018-11-05T06:41:46.914Z,48.07
2018-11-05T06:42:46.916Z,47.67
2018-11-05T06:43:46.886Z,47.87
2018-11-05T06:44:46.905Z,47.99
2018-11-05T06:45:46.853Z,47.77
2018-11-05T06:46:46.842Z,47.87
2018-11-05T06:47:46.880Z,47.97
2018-11-05T06:48:46.885Z,47.87
2018-11-05T06:49:46.810Z,47.99
2018-11-05T06:50:46.800Z,47.77
2018-11-05T06:51:46.785Z,47.87
2018-11-05T06:52:47.051Z,47.87
2018-11-05T06:53:46.763Z,47.97
2018-11-05T06:54:46.776Z,47.99
2018-11-05T06:55:46.743Z,47.97
2018-11-05T06:56:46.730Z,47.97
2018-11-05T06:57:46.862Z,47.77
2018-11-05T06:58:46.733Z,47.77
2018-11-05T06:59:46.695Z,47.97
2018-11-05T07:00:46.713Z,47.87
2018-11-05T07:01:46.673Z,47.97
2018-11-05T07:02:46.666Z,47.97
2018-11-05T07:03:46.691Z,47.97
2018-11-05T07:04:46.641Z,47.89
2018-11-05T07:05:46.640Z,47.87
2018-11-05T07:06:46.617Z,47.87
2018-11-05T07:07:46.606Z,47.97
2018-11-05T07:08:46.619Z,47.97
2018-11-05T07:09:46.603Z,47.97
2018-11-05T07:10:46.574Z,47.97
2018-11-05T07:11:46.561Z,47.97
2018-11-05T07:12:46.564Z,47.99
2018-11-05T07:13:46.563Z,47.67
2018-11-05T07:14:46.529Z,47.97
2018-11-05T07:15:46.517Z,47.97
2018-11-05T07:16:46.535Z,47.97
2018-11-05T07:17:46.495Z,47.57
2018-11-05T07:18:46.712Z,47.97
2018-11-05T07:19:46.471Z,47.87
2018-11-05T07:20:46.489Z,47.67
2018-11-05T07:21:46.473Z,47.87
2018-11-05T07:22:46.439Z,47.67
2018-11-05T07:23:46.427Z,47.37
2018-11-05T07:24:46.439Z,47.57
2018-11-05T07:25:46.404Z,47.87
2018-11-05T07:26:46.394Z,48.07
2018-11-05T07:27:46.450Z,47.87
2018-11-05T07:28:46.371Z,47.77
2018-11-05T07:29:46.386Z,47.67
2018-11-05T07:30:46.376Z,48.07
2018-11-05T07:31:46.369Z,47.57
2018-11-05T07:32:46.326Z,47.87
2018-11-05T07:33:46.458Z,47.87
2018-11-05T07:34:46.305Z,47.57
2018-11-05T07:35:46.293Z,47.47
2018-11-05T07:36:46.306Z,47.57
2018-11-05T07:37:46.300Z,47.57
2018-11-05T07:38:46.259Z,47.57
2018-11-05T07:39:46.248Z,47.67
2018-11-05T07:40:46.237Z,47.77
2018-11-05T07:41:46.229Z,47.57
2018-11-05T07:42:46.252Z,47.47
2018-11-05T07:43:46.203Z,47.57
2018-11-05T07:44:46.195Z,47.77
2018-11-05T07:45:46.180Z,47.87
2018-11-05T07:46:46.174Z,47.77
2018-11-05T07:47:46.186Z,47.77
2018-11-05T07:48:46.177Z,47.87
2018-11-05T07:49:46.137Z,48.07
2018-11-05T07:50:46.230Z,47.87
2018-11-05T07:51:46.114Z,48.17
2018-11-05T07:52:46.106Z,47.67
2018-11-05T07:53:46.125Z,47.87
2018-11-05T07:54:46.080Z,48.07
2018-11-05T07:55:46.069Z,47.87
2018-11-05T07:56:46.140Z,47.77
2018-11-05T07:57:46.048Z,47.87
2018-11-05T07:58:46.061Z,47.97
2018-11-05T07:59:46.024Z,47.77
2018-11-05T08:00:46.014Z,47.77
2018-11-05T08:01:46.003Z,47.77
2018-11-05T08:02:46.055Z,47.87
2018-11-05T08:03:45.978Z,47.77
2018-11-05T08:04:45.996Z,47.87
2018-11-05T08:05:45.990Z,47.77
2018-11-05T08:06:45.945Z,47.77
2018-11-05T08:07:45.935Z,47.57
2018-11-05T08:08:45.923Z,47.55
2018-11-05T08:09:45.912Z,47.75
2018-11-05T08:10:45.945Z,47.55
2018-11-05T08:11:45.889Z,47.75
2018-11-05T08:12:45.884Z,47.75
2018-11-05T08:13:45.867Z,47.55
2018-11-05T08:14:45.856Z,47.75
2018-11-05T08:15:45.879Z,47.75
2018-11-05T08:16:45.835Z,47.85
2018-11-05T08:17:45.822Z,47.85
2018-11-05T08:18:45.812Z,47.65
2018-11-05T08:19:45.801Z,47.85
2018-11-05T08:20:45.817Z,47.15
2018-11-05T08:21:45.777Z,47.75
2018-11-05T08:22:45.791Z,47.75
2018-11-05T08:23:45.758Z,47.55
2018-11-05T08:24:45.745Z,47.85
2018-11-05T08:25:45.732Z,47.15
2018-11-05T08:26:45.722Z,47.85
2018-11-05T08:27:45.738Z,47.75
2018-11-05T08:28:45.700Z,47.55
2018-11-05T08:29:45.687Z,47.25
2018-11-05T08:30:45.676Z,47.45
2018-11-05T08:31:45.665Z,47.35
2018-11-05T08:32:45.680Z,47.35
2018-11-05T08:33:45.670Z,47.35
2018-11-05T08:34:45.635Z,47.45
2018-11-05T08:35:45.621Z,47.45
2018-11-05T08:36:45.611Z,47.35
2018-11-05T08:37:45.598Z,47.55
2018-11-05T08:38:45.613Z,47.45
2018-11-05T08:39:45.575Z,47.35
2018-11-05T08:40:45.564Z,48.25
2018-11-05T08:41:45.554Z,47.85
2018-11-05T08:42:45.576Z,47.65
2018-11-05T08:43:45.531Z,47.85
2018-11-05T08:44:45.519Z,47.65
2018-11-05T08:45:45.521Z,47.85
2018-11-05T08:46:45.559Z,47.35
2018-11-05T08:47:45.512Z,47.95
2018-11-05T08:48:45.474Z,47.35
2018-11-05T08:49:45.465Z,47.83
2018-11-05T08:50:45.584Z,47.85
2018-11-05T08:51:45.760Z,47.92
2018-11-05T08:52:45.434Z,47.35
2018-11-05T08:53:45.469Z,47.85
2018-11-05T08:54:45.408Z,47.35
2018-11-05T08:55:45.397Z,47.75
2018-11-05T08:56:45.389Z,47.15
2018-11-05T08:57:45.533Z,47.85
2018-11-05T08:58:45.499Z,47.85
2018-11-05T08:59:45.353Z,47.35
2018-11-05T09:00:45.343Z,47.85
2018-11-05T09:01:45.374Z,47.72
2018-11-05T09:02:45.319Z,47.65
2018-11-05T09:03:45.332Z,47.65
2018-11-05T09:04:45.420Z,47.72
2018-11-05T09:05:45.311Z,47.65
2018-11-05T09:06:45.274Z,47.65
2018-11-05T09:07:45.263Z,47.63
2018-11-05T09:08:45.251Z,47.65
2018-11-05T09:09:45.306Z,47.63
2018-11-05T09:10:45.527Z,47.85
2018-11-05T09:11:45.354Z,47.83
2018-11-05T09:12:45.208Z,47.83
2018-11-05T09:13:45.203Z,47.15
2018-11-05T09:14:45.224Z,47.65
2018-11-05T09:15:45.174Z,47.65
2018-11-05T09:16:45.166Z,47.65
2018-11-05T09:17:45.162Z,47.65
2018-11-05T09:18:45.139Z,47.63
2018-11-05T09:19:45.153Z,47.72
2018-11-05T09:20:45.262Z,47.85
2018-11-05T09:21:45.106Z,47.83
2018-11-05T09:22:45.095Z,47.85
2018-11-05T09:23:45.085Z,47.83
2018-11-05T09:24:45.073Z,47.63
2018-11-05T09:25:45.094Z,47.63
2018-11-05T09:26:45.053Z,47.63
2018-11-05T09:27:45.081Z,47.63
2018-11-05T09:28:45.032Z,47.13
2018-11-05T09:29:45.018Z,47.63
2018-11-05T09:30:45.031Z,47.75
2018-11-05T09:31:44.995Z,47.83
2018-11-05T09:32:44.984Z,47.75
2018-11-05T09:33:44.972Z,47.15
2018-11-05T09:34:44.962Z,47.65
2018-11-05T09:35:44.985Z,47.63
2018-11-05T09:36:44.938Z,47.72
2018-11-05T09:37:44.930Z,47.72
2018-11-05T09:38:44.916Z,47.83
2018-11-05T09:39:44.904Z,48.13
2018-11-05T09:40:44.927Z,47.63
2018-11-05T09:41:44.883Z,47.65
2018-11-05T09:42:44.993Z,47.83
2018-11-05T09:43:44.859Z,47.63
2018-11-05T09:44:44.853Z,47.63
2018-11-05T09:45:44.861Z,47.63
2018-11-05T09:46:44.827Z,47.03
2018-11-05T09:47:44.839Z,47.65
2018-11-05T09:48:44.803Z,47.25
2018-11-05T09:49:44.795Z,47.63
2018-11-05T09:50:44.847Z,47.63
2018-11-05T09:51:44.796Z,47.72
2018-11-05T09:52:44.762Z,47.65
2018-11-05T09:53:44.747Z,47.53
2018-11-05T09:54:44.736Z,47.72
2018-11-05T09:55:44.730Z,47.85
2018-11-05T09:56:44.740Z,47.63
2018-11-05T09:57:44.705Z,47.63
2018-11-05T09:58:44.781Z,47.63
2018-11-05T09:59:44.693Z,47.45
2018-11-05T10:00:44.671Z,47.22
2018-11-05T10:01:44.657Z,47.25
2018-11-05T10:02:44.699Z,47.25
2018-11-05T10:03:44.853Z,47.25
2018-11-05T10:04:44.978Z,47.33
2018-11-05T10:05:44.613Z,47.45
2018-11-05T10:06:44.603Z,47.25
2018-11-05T10:07:44.591Z,47.33
2018-11-05T10:08:44.609Z,47.42
2018-11-05T10:09:44.609Z,47.22
2018-11-05T10:10:44.558Z,47.33
2018-11-05T10:11:44.545Z,47.22
2018-11-05T10:12:44.567Z,47.22
2018-11-05T10:13:44.524Z,47.22
2018-11-05T10:14:44.513Z,47.22
2018-11-05T10:15:44.503Z,47.22
2018-11-05T10:16:44.496Z,47.33
2018-11-05T10:17:44.506Z,47.53
2018-11-05T10:18:44.468Z,47.22
2018-11-05T10:19:44.462Z,47.22
2018-11-05T10:20:44.446Z,47.22
2018-11-05T10:21:44.461Z,47.22
2018-11-05T10:22:44.425Z,47.22
2018-11-05T10:23:44.413Z,47.33
2018-11-05T10:24:44.513Z,47.22
2018-11-05T10:25:44.389Z,47.22
2018-11-05T10:26:44.406Z,47.22
2018-11-05T10:27:44.381Z,47.22
2018-11-05T10:28:44.356Z,47.13
2018-11-05T10:29:44.344Z,47.13
2018-11-05T10:30:44.335Z,47.22
2018-11-05T10:31:44.351Z,47.13
2018-11-05T10:32:44.336Z,47.22
2018-11-05T10:33:44.375Z,47.22
2018-11-05T10:34:44.289Z,47.22
2018-11-05T10:35:44.328Z,47.42
2018-11-05T10:36:44.271Z,47.22
2018-11-05T10:37:44.282Z,47.13
2018-11-05T10:38:44.246Z,47.13
2018-11-05T10:39:44.233Z,47.33
2018-11-05T10:40:44.224Z,47.13
2018-11-05T10:41:44.211Z,47.53
2018-11-05T10:42:44.223Z,47.22
2018-11-05T10:43:44.237Z,47.22
2018-11-05T10:44:44.178Z,46.92
2018-11-05T10:45:44.168Z,47.22
2018-11-05T10:46:44.154Z,47.13
2018-11-05T10:47:44.143Z,47.22
2018-11-05T10:48:44.156Z,46.92
2018-11-05T10:49:44.153Z,46.73
2018-11-05T10:50:44.230Z,46.83
2018-11-05T10:51:44.124Z,46.92
2018-11-05T10:52:44.088Z,47.13
2018-11-05T10:53:44.078Z,46.92
2018-11-05T10:54:44.099Z,47.13
2018-11-05T10:55:44.053Z,46.92
2018-11-05T10:56:44.053Z,47.00
2018-11-05T10:57:44.031Z,47.13
2018-11-05T10:58:44.022Z,47.03
2018-11-05T10:59:44.050Z,47.00
2018-11-05T11:00:43.999Z,47.00
2018-11-05T11:01:43.987Z,46.70
2018-11-05T11:02:43.976Z,47.00
2018-11-05T11:03:44.018Z,46.80
2018-11-05T11:04:43.986Z,46.83
2018-11-05T11:05:43.967Z,47.10
2018-11-05T11:06:43.931Z,46.80
2018-11-05T11:07:43.920Z,46.92
2018-11-05T11:08:43.909Z,46.61
2018-11-05T11:09:43.973Z,46.61
2018-11-05T11:10:43.886Z,46.91
2018-11-05T11:11:43.874Z,46.61
2018-11-05T11:12:43.891Z,46.61
2018-11-05T11:13:43.852Z,46.80
2018-11-05T11:14:43.841Z,46.80
2018-11-05T11:15:43.831Z,46.91
2018-11-05T11:16:43.820Z,46.61
2018-11-05T11:17:43.834Z,46.80
2018-11-05T11:18:43.797Z,46.61
2018-11-05T11:19:43.804Z,46.80
2018-11-05T11:20:43.776Z,46.61
2018-11-05T11:21:43.790Z,46.92
2018-11-05T11:22:43.752Z,46.80
2018-11-05T11:23:43.764Z,46.80
2018-11-05T11:24:43.729Z,46.61
2018-11-05T11:25:43.718Z,46.61
2018-11-05T11:26:43.708Z,46.80
2018-11-05T11:27:43.776Z,46.80
2018-11-05T11:28:43.818Z,46.70
2018-11-05T11:29:43.674Z,47.00
2018-11-05T11:30:43.698Z,46.91
2018-11-05T11:31:43.651Z,47.00
2018-11-05T11:32:43.643Z,47.00
2018-11-05T11:33:43.632Z,47.13
2018-11-05T11:34:43.618Z,46.80
2018-11-05T11:35:43.635Z,46.80
2018-11-05T11:36:43.765Z,46.91
2018-11-05T11:37:43.583Z,46.61
2018-11-05T11:38:43.577Z,46.91
2018-11-05T11:39:43.562Z,46.91
2018-11-05T11:40:43.576Z,46.80
2018-11-05T11:41:43.539Z,46.80
2018-11-05T11:42:43.528Z,46.91
2018-11-05T11:43:43.517Z,46.80
2018-11-05T11:44:43.530Z,46.61
2018-11-05T11:45:43.521Z,46.70
2018-11-05T11:46:43.515Z,46.70
2018-11-05T11:47:43.472Z,46.61
2018-11-05T11:48:43.460Z,46.91
2018-11-05T11:49:43.452Z,46.61
2018-11-05T11:50:43.437Z,46.61
2018-11-05T11:51:43.443Z,46.61
2018-11-05T11:52:43.452Z,46.80
2018-11-05T11:53:43.406Z,46.61
2018-11-05T11:54:43.392Z,46.91
2018-11-05T11:55:43.407Z,46.91
2018-11-05T11:56:43.372Z,46.61
2018-11-05T11:57:43.360Z,46.91
2018-11-05T11:58:43.348Z,46.70
2018-11-05T11:59:43.380Z,46.91
2018-11-05T12:00:43.364Z,46.61
2018-11-05T12:01:43.316Z,46.80
2018-11-05T12:02:43.307Z,46.80
2018-11-05T12:03:43.293Z,46.61
2018-11-05T12:04:43.282Z,46.91
2018-11-05T12:05:43.300Z,46.62
2018-11-05T12:06:43.285Z,46.73
2018-11-05T12:07:43.253Z,46.80
2018-11-05T12:08:43.238Z,46.70
2018-11-05T12:09:43.225Z,46.62
2018-11-05T12:10:43.239Z,46.61
2018-11-05T12:11:43.204Z,46.83
2018-11-05T12:12:43.192Z,46.61
2018-11-05T12:13:43.184Z,46.91
2018-11-05T12:14:43.350Z,46.80
2018-11-05T12:15:43.184Z,46.70
2018-11-05T12:16:43.148Z,46.70
2018-11-05T12:17:43.136Z,46.70
2018-11-05T12:18:43.162Z,46.70
2018-11-05T12:19:43.115Z,46.91
2018-11-05T12:20:43.139Z,46.83
2018-11-05T12:21:43.092Z,46.92
2018-11-05T12:22:43.084Z,46.91
2018-11-05T12:23:43.069Z,46.62
2018-11-05T12:24:43.146Z,46.61
2018-11-05T12:25:43.081Z,46.73
2018-11-05T12:26:43.083Z,46.91
2018-11-05T12:27:43.030Z,46.62
2018-11-05T12:28:43.017Z,46.73
2018-11-05T12:29:43.001Z,46.91
2018-11-05T12:30:43.024Z,46.80
2018-11-05T12:31:42.983Z,47.00
2018-11-05T12:32:42.969Z,46.91
2018-11-05T12:33:42.957Z,46.80
2018-11-05T12:34:42.945Z,47.00
2018-11-05T12:35:42.960Z,46.61
2018-11-05T12:36:42.949Z,47.00
2018-11-05T12:37:43.020Z,47.00
2018-11-05T12:38:42.977Z,46.80
2018-11-05T12:39:42.891Z,46.80
2018-11-05T12:40:42.879Z,46.83
2018-11-05T12:41:42.867Z,46.91
2018-11-05T12:42:42.857Z,46.80
2018-11-05T12:43:42.873Z,46.91
2018-11-05T12:44:43.131Z,46.80
2018-11-05T12:45:42.832Z,46.80
2018-11-05T12:46:42.813Z,46.80
2018-11-05T12:47:42.810Z,46.80
2018-11-05T12:48:42.818Z,46.62
2018-11-05T12:49:42.780Z,46.61
2018-11-05T12:50:42.812Z,46.61
2018-11-05T12:51:42.756Z,46.83
2018-11-05T12:52:42.746Z,46.70